Time;durP1;ratioP1;P1;durP2;ratioP2;P2;SDS_P1;SDS_P2;PMS_P1;PMS_P2;Temp;Humidity;BMP_temperature;BMP_pressure;BME280_temperature;BME280_humidity;BME280_pressure;Samples;Min_cycle;Max_cycle;Signal;HPM_P1;HPM_P2
2021/04/30 00:01:34;;;;;;;17.13;11.13;;;15.90;99.90;;;;;;5095518;28;20185;-69
2021/04/30 00:04:00;;;;;;;19.00;12.00;;;15.90;99.90;;;;;;5096466;28;20197;-69
2021/04/30 00:06:26;;;;;;;16.03;10.40;;;16.00;99.90;;;;;;5096819;28;20179;-69
2021/04/30 00:08:51;;;;;;;19.80;10.20;;;16.00;99.90;;;;;;5096566;28;20192;-69
2021/04/30 00:11:17;;;;;;;15.33;12.30;;;16.00;99.90;;;;;;5096678;28;20177;-69
2021/04/30 00:13:43;;;;;;;20.87;12.10;;;16.00;99.90;;;;;;5095104;28;20270;-69
2021/04/30 00:16:09;;;;;;;15.37;10.47;;;15.90;99.90;;;;;;5096628;28;20413;-69
2021/04/30 00:18:35;;;;;;;15.33;11.10;;;15.90;99.90;;;;;;5085689;28;20693;-69
2021/04/30 00:21:02;;;;;;;17.57;11.60;;;15.90;99.90;;;;;;5076204;28;20180;-70
2021/04/30 00:23:29;;;;;;;19.60;11.67;;;15.90;99.90;;;;;;5075944;28;20965;-69
2021/04/30 00:25:56;;;;;;;18.03;11.47;;;15.80;99.90;;;;;;5075803;28;20414;-69
2021/04/30 00:28:23;;;;;;;18.03;10.43;;;15.70;99.90;;;;;;5076046;28;20931;-69
2021/04/30 00:30:50;;;;;;;23.27;14.27;;;15.70;99.90;;;;;;5074261;28;20839;-69
2021/04/30 00:33:16;;;;;;;17.37;10.47;;;15.60;99.90;;;;;;5074524;28;20499;-69
2021/04/30 00:35:42;;;;;;;15.73;11.63;;;15.60;99.90;;;;;;5075855;28;20398;-69
2021/04/30 00:38:08;;;;;;;19.57;10.73;;;15.60;99.90;;;;;;5074561;28;20430;-70
2021/04/30 00:40:34;;;;;;;19.83;11.30;;;15.60;99.90;;;;;;5075711;28;20969;-69
2021/04/30 00:43:00;;;;;;;17.53;11.40;;;15.60;99.90;;;;;;5075706;28;20430;-69
2021/04/30 00:45:26;;;;;;;17.00;10.00;;;15.50;99.90;;;;;;5075306;28;20410;-71
2021/04/30 00:47:53;;;;;;;16.73;11.43;;;15.50;99.90;;;;;;5073820;28;20232;-69
2021/04/30 00:50:21;;;;;;;16.97;11.60;;;15.40;99.90;;;;;;5075381;28;20402;-69
2021/04/30 00:52:47;;;;;;;16.50;11.10;;;15.30;99.90;;;;;;5075706;28;21002;-69
2021/04/30 00:55:15;;;;;;;17.43;11.00;;;15.20;99.90;;;;;;5075529;28;20421;-71
2021/04/30 00:57:46;;;;;;;20.23;10.57;;;15.10;99.90;;;;;;5075755;28;20193;-69
2021/04/30 01:00:13;;;;;;;18.40;11.23;;;14.80;99.90;;;;;;5075585;28;20755;-69
2021/04/30 01:02:39;;;;;;;16.07;10.00;;;14.70;99.90;;;;;;5074132;28;20457;-69
2021/04/30 01:05:07;;;;;;;15.30;10.43;;;14.70;99.90;;;;;;5075073;28;20508;-70
2021/04/30 01:07:33;;;;;;;18.90;11.27;;;14.70;99.90;;;;;;5075588;28;20425;-69
2021/04/30 01:09:59;;;;;;;20.70;10.93;;;14.90;99.90;;;;;;5073845;28;20459;-69
2021/04/30 01:12:25;;;;;;;17.80;11.77;;;15.00;99.90;;;;;;5074922;28;20458;-69
2021/04/30 01:14:51;;;;;;;18.13;9.97;;;15.10;99.90;;;;;;5075213;28;20276;-70
2021/04/30 01:17:17;;;;;;;20.57;11.77;;;15.20;99.90;;;;;;5075344;28;20434;-69
2021/04/30 01:19:43;;;;;;;19.87;12.40;;;15.10;99.90;;;;;;5074958;28;20445;-70
2021/04/30 01:22:09;;;;;;;19.17;12.20;;;15.20;99.90;;;;;;5073924;28;20235;-69
2021/04/30 01:24:35;;;;;;;17.77;11.53;;;15.30;99.90;;;;;;5074630;28;20422;-69
2021/04/30 01:27:01;;;;;;;16.57;11.00;;;15.40;99.90;;;;;;5074767;28;20464;-69
2021/04/30 01:29:27;;;;;;;18.00;11.70;;;15.40;99.90;;;;;;5073450;28;20469;-70
2021/04/30 01:31:53;;;;;;;20.90;12.17;;;15.40;99.90;;;;;;5074913;28;20477;-69
2021/04/30 01:34:19;;;;;;;17.23;11.50;;;15.50;99.90;;;;;;5073433;28;20426;-69
2021/04/30 01:36:44;;;;;;;17.07;11.53;;;15.50;99.90;;;;;;5074871;28;20173;-69
2021/04/30 01:39:13;;;;;;;20.33;11.70;;;15.50;99.90;;;;;;5073305;28;20441;-69
2021/04/30 01:41:41;;;;;;;17.07;11.70;;;15.50;99.90;;;;;;5074525;28;20539;-69
2021/04/30 01:44:12;;;;;;;17.47;10.83;;;15.40;99.90;;;;;;5072322;28;20929;-69
2021/04/30 01:46:39;;;;;;;19.90;11.17;;;15.40;99.90;;;;;;5074521;28;20447;-70
2021/04/30 01:49:06;;;;;;;21.17;12.27;;;15.40;99.90;;;;;;5074466;28;20533;-69
2021/04/30 01:51:35;;;;;;;15.73;10.87;;;15.30;99.90;;;;;;5074464;28;20418;-69
2021/04/30 01:54:01;;;;;;;19.30;13.30;;;15.30;99.90;;;;;;5074225;28;20865;-69
2021/04/30 01:56:27;;;;;;;16.30;10.87;;;15.20;99.90;;;;;;5074478;28;20468;-69
2021/04/30 01:58:53;;;;;;;17.60;11.23;;;15.10;99.90;;;;;;5074150;28;20457;-69
2021/04/30 02:01:18;;;;;;;16.30;11.27;;;15.20;99.90;;;;;;5073054;28;20592;-70
2021/04/30 02:03:44;;;;;;;18.97;11.87;;;15.20;99.90;;;;;;5074066;28;20192;-68
2021/04/30 02:06:10;;;;;;;16.97;11.50;;;15.30;99.90;;;;;;5072783;28;20710;-69
2021/04/30 02:08:36;;;;;;;18.83;11.60;;;15.30;99.90;;;;;;5074090;28;20193;-69
2021/04/30 02:11:03;;;;;;;28.07;11.80;;;15.30;99.90;;;;;;5074163;28;20177;-68
2021/04/30 02:13:28;;;;;;;19.10;11.77;;;15.20;99.90;;;;;;5073735;28;20834;-69
2021/04/30 02:15:54;;;;;;;20.77;13.33;;;15.20;99.90;;;;;;5073979;28;20420;-68
2021/04/30 02:18:21;;;;;;;25.27;13.33;;;15.20;99.90;;;;;;5073788;28;20204;-69
2021/04/30 02:20:48;;;;;;;22.90;12.07;;;15.20;99.90;;;;;;5073839;28;20406;-69
2021/04/30 02:23:14;;;;;;;21.30;12.40;;;15.20;99.90;;;;;;5073877;28;20426;-69
2021/04/30 02:25:40;;;;;;;19.83;12.40;;;15.20;99.90;;;;;;5073686;28;20409;-70
2021/04/30 02:28:05;;;;;;;21.20;12.37;;;15.10;99.90;;;;;;5073839;28;20425;-69
2021/04/30 02:30:33;;;;;;;19.90;12.13;;;15.10;99.90;;;;;;5073864;28;20776;-69
2021/04/30 02:33:00;;;;;;;18.73;11.67;;;15.10;99.90;;;;;;5072332;28;20221;-69
2021/04/30 02:35:30;;;;;;;22.40;12.67;;;15.10;99.90;;;;;;5072488;28;20410;-69
2021/04/30 02:37:56;;;;;;;20.53;12.93;;;15.10;99.90;;;;;;5073796;28;20541;-70
2021/04/30 02:40:26;;;;;;;21.73;13.07;;;14.90;99.90;;;;;;5073683;28;20459;-70
2021/04/30 02:42:53;;;;;;;19.97;11.70;;;14.90;99.90;;;;;;5074143;28;20436;-69
2021/04/30 02:45:19;;;;;;;20.80;12.90;;;14.90;99.90;;;;;;5072229;28;20409;-70
2021/04/30 02:47:46;;;;;;;19.10;13.60;;;14.90;99.90;;;;;;5073194;28;20539;-69
2021/04/30 02:50:15;;;;;;;22.07;12.57;;;15.00;99.90;;;;;;5072387;28;20181;-69
2021/04/30 02:52:41;;;;;;;23.00;15.43;;;14.80;99.90;;;;;;5073842;28;20481;-69
2021/04/30 02:55:08;;;;;;;20.90;11.83;;;14.90;99.90;;;;;;5078175;28;20911;-70
2021/04/30 02:57:34;;;;;;;24.53;12.43;;;14.90;99.90;;;;;;5080257;28;20422;-69
2021/04/30 03:00:00;;;;;;;21.70;12.53;;;14.80;99.90;;;;;;5078902;28;20421;-70
2021/04/30 03:02:26;;;;;;;18.93;12.53;;;14.70;99.90;;;;;;5099164;28;20184;-69
2021/04/30 03:04:52;;;;;;;21.23;11.93;;;14.70;99.90;;;;;;5100213;28;20906;-69
2021/04/30 03:07:18;;;;;;;21.17;11.10;;;14.80;99.90;;;;;;5100705;28;20419;-70
2021/04/30 03:09:43;;;;;;;19.00;12.30;;;14.80;99.90;;;;;;5100330;28;20412;-69
2021/04/30 03:12:09;;;;;;;21.30;13.33;;;14.90;99.90;;;;;;5100698;28;20211;-69
2021/04/30 03:14:35;;;;;;;20.17;12.40;;;14.80;99.90;;;;;;5100279;28;20203;-69
2021/04/30 03:17:00;;;;;;;22.10;13.03;;;14.80;99.90;;;;;;5100279;28;20181;-69
2021/04/30 03:19:26;;;;;;;18.07;12.40;;;14.90;99.90;;;;;;5100200;28;20547;-69
2021/04/30 03:21:51;;;;;;;22.60;13.63;;;14.90;99.90;;;;;;5100458;28;20184;-69
2021/04/30 03:24:17;;;;;;;24.63;13.73;;;14.90;99.90;;;;;;5100352;28;20257;-69
2021/04/30 03:26:43;;;;;;;22.63;13.63;;;14.90;99.90;;;;;;5100103;28;20184;-69
2021/04/30 03:29:08;;;;;;;20.90;12.30;;;14.70;99.90;;;;;;5100208;28;20213;-69
2021/04/30 03:31:34;;;;;;;21.73;13.70;;;14.70;99.90;;;;;;5100292;28;20217;-69
2021/04/30 03:34:00;;;;;;;25.73;13.97;;;14.60;99.90;;;;;;5100051;28;20207;-69
2021/04/30 03:36:26;;;;;;;21.70;13.37;;;14.60;99.90;;;;;;5099727;28;20176;-69
2021/04/30 03:38:52;;;;;;;19.80;13.20;;;14.60;99.90;;;;;;5098710;28;20203;-69
2021/04/30 03:41:17;;;;;;;23.77;14.10;;;14.50;99.90;;;;;;5100094;28;20404;-69
2021/04/30 03:43:44;;;;;;;22.87;14.10;;;14.50;99.90;;;;;;5098667;28;20215;-69
2021/04/30 03:46:10;;;;;;;21.80;13.20;;;14.40;99.90;;;;;;5100190;28;20618;-69
2021/04/30 03:48:37;;;;;;;21.30;12.87;;;14.30;99.90;;;;;;5099950;28;20456;-70
2021/04/30 03:51:03;;;;;;;22.37;13.37;;;14.30;99.90;;;;;;5098584;28;20425;-70
2021/04/30 03:53:28;;;;;;;25.80;14.87;;;14.30;99.90;;;;;;5099155;28;20472;-69
2021/04/30 03:55:54;;;;;;;22.70;13.20;;;14.20;99.90;;;;;;5098692;28;20440;-69
2021/04/30 03:58:20;;;;;;;20.97;13.43;;;14.20;99.90;;;;;;5097147;28;20681;-69
2021/04/30 04:00:46;;;;;;;18.60;13.20;;;14.30;99.90;;;;;;5098308;28;20188;-69
2021/04/30 04:03:12;;;;;;;19.30;12.67;;;14.20;99.90;;;;;;5098127;28;20443;-69
2021/04/30 04:05:37;;;;;;;20.23;13.13;;;14.30;99.90;;;;;;5096522;28;20212;-68
2021/04/30 04:08:08;;;;;;;26.37;14.87;;;14.30;99.90;;;;;;5095722;28;20215;-70
2021/04/30 04:10:35;;;;;;;22.00;12.30;;;14.30;99.90;;;;;;5095312;28;20222;-68
2021/04/30 04:13:01;;;;;;;26.20;14.00;;;14.30;99.90;;;;;;5089574;28;20997;-69
2021/04/30 04:15:27;;;;;;;23.57;12.87;;;14.40;99.90;;;;;;5093858;28;20424;-70
2021/04/30 04:17:52;;;;;;;21.23;12.53;;;14.50;99.90;;;;;;5090332;28;20207;-69
2021/04/30 04:20:18;;;;;;;22.17;12.57;;;14.80;99.90;;;;;;5093298;28;20273;-70
2021/04/30 04:22:43;;;;;;;23.17;13.60;;;14.70;99.90;;;;;;5092472;28;20308;-69
2021/04/30 04:25:09;;;;;;;22.10;13.23;;;14.50;99.90;;;;;;5089403;28;20750;-69
2021/04/30 04:27:35;;;;;;;29.30;13.57;;;14.50;99.90;;;;;;5092323;28;20550;-68
2021/04/30 04:30:01;;;;;;;24.73;13.33;;;14.40;99.90;;;;;;5093182;28;20424;-70
2021/04/30 04:32:27;;;;;;;17.80;11.43;;;14.40;99.90;;;;;;5092573;28;20219;-69
2021/04/30 04:34:52;;;;;;;21.70;12.97;;;14.40;99.90;;;;;;5095948;28;20413;-69
2021/04/30 04:37:18;;;;;;;18.50;12.50;;;14.40;99.90;;;;;;5095336;28;20191;-69
2021/04/30 04:39:44;;;;;;;21.93;13.13;;;14.30;99.90;;;;;;5091470;28;20279;-69
2021/04/30 04:42:09;;;;;;;25.03;13.80;;;14.30;99.90;;;;;;5086144;28;20444;-68
2021/04/30 04:44:35;;;;;;;20.60;12.10;;;14.20;99.90;;;;;;5094521;28;20583;-68
2021/04/30 04:47:02;;;;;;;26.27;13.33;;;14.20;99.90;;;;;;5092863;28;20589;-69
2021/04/30 04:49:28;;;;;;;17.03;12.07;;;14.10;99.90;;;;;;5095696;28;20459;-68
2021/04/30 04:51:54;;;;;;;24.40;13.70;;;14.00;99.90;;;;;;5092036;28;20461;-67
2021/04/30 04:54:21;;;;;;;22.80;12.87;;;13.90;99.90;;;;;;5090919;28;20480;-67
2021/04/30 04:56:47;;;;;;;23.80;12.60;;;14.00;99.90;;;;;;5092893;28;20923;-67
2021/04/30 04:59:13;;;;;;;20.03;13.63;;;14.00;99.90;;;;;;5093139;28;20985;-67
2021/04/30 05:01:38;;;;;;;25.17;14.10;;;14.00;99.90;;;;;;5092488;28;20421;-69
2021/04/30 05:04:04;;;;;;;22.00;13.10;;;14.00;99.90;;;;;;5093898;28;20666;-69
2021/04/30 05:06:30;;;;;;;27.93;14.50;;;14.00;99.90;;;;;;5092758;28;20191;-68
2021/04/30 05:08:55;;;;;;;24.93;14.27;;;14.00;99.90;;;;;;5091256;28;20209;-67
2021/04/30 05:11:21;;;;;;;21.27;12.77;;;13.90;99.90;;;;;;5090919;28;20263;-67
2021/04/30 05:13:47;;;;;;;21.60;12.43;;;14.00;99.90;;;;;;5093200;28;20241;-66
2021/04/30 05:16:13;;;;;;;18.77;11.43;;;14.10;99.90;;;;;;5091909;28;20629;-67
2021/04/30 05:18:39;;;;;;;22.83;12.83;;;13.80;99.90;;;;;;5090889;28;20247;-67
2021/04/30 05:21:05;;;;;;;27.13;16.00;;;13.90;99.90;;;;;;5094527;28;20461;-67
2021/04/30 05:23:31;;;;;;;26.20;13.43;;;14.10;99.90;;;;;;5094234;28;20973;-69
2021/04/30 05:25:56;;;;;;;28.60;16.40;;;14.00;99.90;;;;;;5092981;28;20421;-69
2021/04/30 05:28:22;;;;;;;32.03;14.10;;;14.10;99.90;;;;;;5094860;28;20696;-67
2021/04/30 05:30:48;;;;;;;32.07;17.17;;;14.20;99.90;;;;;;5092879;28;20665;-69
2021/04/30 05:33:14;;;;;;;30.57;16.80;;;14.30;99.90;;;;;;5092789;28;20284;-68
2021/04/30 05:35:40;;;;;;;28.10;16.60;;;14.40;99.90;;;;;;5092783;28;20583;-67
2021/04/30 05:38:05;;;;;;;27.07;15.20;;;14.50;99.90;;;;;;5090384;28;20502;-67
2021/04/30 05:40:32;;;;;;;22.13;14.30;;;14.50;99.90;;;;;;5092162;28;20264;-69
2021/04/30 05:42:58;;;;;;;25.27;13.93;;;14.50;99.90;;;;;;5089643;28;20207;-68
2021/04/30 05:45:23;;;;;;;27.57;13.73;;;14.60;99.90;;;;;;5091005;28;20425;-70
2021/04/30 05:47:49;;;;;;;25.37;13.83;;;14.70;99.90;;;;;;5093128;28;20284;-68
2021/04/30 05:50:15;;;;;;;25.67;14.90;;;14.80;99.90;;;;;;5090730;28;20577;-68
2021/04/30 05:52:40;;;;;;;22.10;13.17;;;14.80;99.90;;;;;;5090339;28;20300;-69
2021/04/30 05:55:07;;;;;;;22.70;13.07;;;14.80;99.90;;;;;;5088617;28;20237;-68
2021/04/30 05:57:33;;;;;;;22.90;14.60;;;15.00;99.90;;;;;;5091202;28;20180;-69
2021/04/30 05:59:59;;;;;;;21.27;13.97;;;15.50;99.90;;;;;;5089593;28;20899;-69
2021/04/30 06:02:25;;;;;;;28.57;15.83;;;15.30;99.90;;;;;;5086698;28;20191;-67
2021/04/30 06:04:50;;;;;;;23.00;14.07;;;15.30;99.90;;;;;;5089290;28;20183;-68
2021/04/30 06:07:16;;;;;;;23.90;13.07;;;15.20;99.90;;;;;;5079272;28;20790;-68
2021/04/30 06:09:42;;;;;;;22.70;14.33;;;15.30;99.90;;;;;;5083382;28;20200;-69
2021/04/30 06:12:08;;;;;;;21.07;13.63;;;15.40;99.90;;;;;;5090033;28;20208;-67
2021/04/30 06:14:34;;;;;;;25.00;15.37;;;15.50;99.90;;;;;;5105886;28;20205;-68
2021/04/30 06:17:00;;;;;;;23.70;13.97;;;15.60;99.90;;;;;;5082038;28;20804;-68
2021/04/30 06:19:26;;;;;;;24.67;14.60;;;15.80;99.90;;;;;;5078467;28;20193;-68
2021/04/30 06:21:53;;;;;;;25.50;15.70;;;16.00;99.90;;;;;;5077579;28;20416;-68
2021/04/30 06:24:19;;;;;;;22.73;13.80;;;16.00;99.90;;;;;;5090713;28;20459;-70
2021/04/30 06:26:45;;;;;;;21.00;13.50;;;16.20;99.90;;;;;;5092515;28;20419;-67
2021/04/30 06:29:11;;;;;;;23.20;14.03;;;16.30;99.90;;;;;;5085260;28;20441;-67
2021/04/30 06:31:39;;;;;;;22.03;14.00;;;16.50;99.90;;;;;;5087565;28;20205;-68
2021/04/30 06:34:05;;;;;;;20.40;12.50;;;16.70;99.90;;;;;;5079210;28;20279;-68
2021/04/30 06:36:32;;;;;;;19.83;12.93;;;16.80;99.90;;;;;;5089318;28;20440;-67
2021/04/30 06:38:58;;;;;;;20.13;13.87;;;17.10;99.90;;;;;;5087580;28;20441;-68
2021/04/30 06:41:23;;;;;;;21.37;12.33;;;17.30;99.90;;;;;;5092081;28;20566;-68
2021/04/30 06:43:49;;;;;;;16.43;10.33;;;17.20;99.90;;;;;;5090401;28;20445;-68
2021/04/30 06:46:15;;;;;;;18.73;11.20;;;17.50;99.90;;;;;;5083833;28;20203;-68
2021/04/30 06:48:40;;;;;;;17.43;11.27;;;17.70;99.90;;;;;;5081234;28;20236;-70
2021/04/30 06:51:06;;;;;;;22.57;12.50;;;17.80;99.90;;;;;;5085857;28;20244;-68
2021/04/30 06:53:31;;;;;;;19.13;11.83;;;17.90;99.90;;;;;;5088551;28;20246;-68
2021/04/30 06:55:57;;;;;;;17.37;11.60;;;18.00;99.90;;;;;;5083894;28;20524;-70
2021/04/30 06:58:23;;;;;;;19.00;10.73;;;18.10;99.90;;;;;;5080186;28;20705;-69
2021/04/30 07:00:49;;;;;;;20.10;12.40;;;18.30;99.90;;;;;;5086386;28;20493;-68
2021/04/30 07:03:15;;;;;;;17.30;11.13;;;18.40;99.90;;;;;;5079948;28;20249;-69
2021/04/30 07:05:42;;;;;;;15.73;11.10;;;18.40;99.90;;;;;;5087347;28;20288;-68
2021/04/30 07:08:08;;;;;;;17.77;10.27;;;18.50;99.90;;;;;;5086156;28;20283;-68
2021/04/30 07:10:34;;;;;;;13.30;9.00;;;18.60;99.90;;;;;;5072278;28;20434;-68
2021/04/30 07:12:59;;;;;;;14.60;8.90;;;18.50;99.90;;;;;;5081398;28;20231;-70
2021/04/30 07:15:25;;;;;;;14.40;9.10;;;18.40;99.90;;;;;;5085614;28;20620;-68
2021/04/30 07:17:51;;;;;;;15.30;10.80;;;18.50;99.90;;;;;;5081433;28;20291;-68
2021/04/30 07:20:17;;;;;;;15.33;8.90;;;18.30;99.90;;;;;;5078068;28;20557;-70
2021/04/30 07:22:42;;;;;;;16.03;9.33;;;18.20;99.90;;;;;;5089229;28;20690;-69
2021/04/30 07:25:09;;;;;;;14.67;8.80;;;18.30;99.90;;;;;;5088976;28;20182;-68
2021/04/30 07:27:34;;;;;;;11.40;8.00;;;18.50;99.90;;;;;;5088275;28;20193;-69
2021/04/30 07:30:00;;;;;;;12.17;7.40;;;18.50;99.90;;;;;;5091640;28;20504;-70
2021/04/30 07:32:26;;;;;;;14.93;10.20;;;18.50;99.90;;;;;;5089369;28;20300;-69
2021/04/30 07:34:51;;;;;;;9.67;7.20;;;18.60;99.90;;;;;;5090448;28;20562;-69
2021/04/30 07:37:17;;;;;;;11.27;8.00;;;19.00;99.90;;;;;;5087255;28;20183;-70
2021/04/30 07:39:46;;;;;;;12.33;8.33;;;19.20;99.90;;;;;;5076695;28;20243;-69
2021/04/30 07:42:11;;;;;;;9.70;6.40;;;19.30;99.90;;;;;;5086689;28;20183;-70
2021/04/30 07:44:37;;;;;;;10.27;5.77;;;19.50;99.90;;;;;;5092727;28;20427;-68
2021/04/30 07:47:04;;;;;;;11.40;6.67;;;19.60;99.90;;;;;;5092306;28;20227;-67
2021/04/30 07:49:30;;;;;;;6.87;6.20;;;20.00;99.90;;;;;;5088653;28;20497;-69
2021/04/30 07:51:56;;;;;;;12.07;10.80;;;19.90;99.90;;;;;;5086016;28;20837;-69
2021/04/30 07:54:22;;;;;;;9.50;8.63;;;20.10;99.90;;;;;;5083332;28;20834;-67
2021/04/30 07:56:49;;;;;;;4.20;2.90;;;20.10;99.90;;;;;;5086118;28;20183;-70
2021/04/30 07:59:14;;;;;;;4.07;2.83;;;20.20;99.90;;;;;;5087579;28;20583;-69
2021/04/30 08:01:40;;;;;;;3.57;2.73;;;20.30;99.90;;;;;;5086534;28;20459;-68
2021/04/30 08:04:06;;;;;;;6.33;3.70;;;20.30;99.90;;;;;;5080630;28;20201;-70
2021/04/30 08:06:32;;;;;;;4.83;3.23;;;20.60;99.90;;;;;;5080156;28;20271;-69
2021/04/30 08:08:57;;;;;;;3.53;3.10;;;20.90;99.90;;;;;;5085387;28;20531;-67
2021/04/30 08:11:23;;;;;;;3.87;2.70;;;21.00;99.90;;;;;;5085163;28;20187;-67
2021/04/30 08:13:48;;;;;;;7.03;3.70;;;21.20;99.90;;;;;;5088582;28;20307;-69
2021/04/30 08:16:14;;;;;;;3.83;2.80;;;21.40;99.90;;;;;;5088249;28;20177;-69
2021/04/30 08:18:40;;;;;;;2.90;2.20;;;21.90;99.90;;;;;;5082085;28;20662;-70
2021/04/30 08:21:06;;;;;;;3.60;2.20;;;22.40;99.90;;;;;;5089468;28;20662;-68
2021/04/30 08:23:32;;;;;;;3.00;2.00;;;21.90;99.90;;;;;;5088032;28;20800;-70
2021/04/30 08:25:58;;;;;;;2.93;1.73;;;21.80;99.90;;;;;;5087705;28;20474;-70
2021/04/30 08:28:24;;;;;;;2.20;2.00;;;21.70;99.90;;;;;;5092314;28;20962;-68
2021/04/30 08:30:50;;;;;;;1.57;1.33;;;21.60;99.90;;;;;;5089888;28;20176;-68
2021/04/30 08:33:15;;;;;;;3.13;2.57;;;21.80;99.90;;;;;;5091470;28;20601;-70
2021/04/30 08:35:41;;;;;;;3.33;1.80;;;22.10;99.90;;;;;;5092110;28;20203;-70
2021/04/30 08:38:07;;;;;;;2.03;1.80;;;22.20;99.90;;;;;;5087053;28;20266;-69
2021/04/30 08:40:33;;;;;;;3.10;1.47;;;22.20;99.90;;;;;;5089490;28;20473;-69
2021/04/30 08:42:59;;;;;;;6.43;2.40;;;22.40;99.90;;;;;;5088198;28;20214;-69
2021/04/30 08:45:25;;;;;;;1.73;1.60;;;22.30;99.90;;;;;;5090566;28;20640;-69
2021/04/30 08:47:51;;;;;;;2.87;1.90;;;22.40;99.90;;;;;;5088540;28;20228;-68
2021/04/30 08:50:17;;;;;;;3.80;2.07;;;22.40;99.90;;;;;;5093754;28;20422;-69
2021/04/30 08:52:43;;;;;;;3.60;2.10;;;22.60;99.90;;;;;;5089824;28;20482;-68
2021/04/30 08:55:14;;;;;;;4.03;1.93;;;22.80;99.90;;;;;;5083902;28;21128;-68
2021/04/30 08:57:46;;;;;;;2.07;1.90;;;22.80;99.90;;;;;;5089721;28;20203;-68
2021/04/30 09:00:13;;;;;;;2.37;1.80;;;22.80;99.90;;;;;;5088418;28;20434;-70
2021/04/30 09:02:39;;;;;;;2.40;1.90;;;22.50;99.90;;;;;;5088939;28;20458;-69
2021/04/30 09:05:10;;;;;;;1.70;1.60;;;22.80;99.90;;;;;;5091542;28;20491;-70
2021/04/30 09:07:43;;;;;;;2.57;1.73;;;22.30;99.90;;;;;;5091946;28;20282;-68
2021/04/30 09:10:11;;;;;;;2.53;2.10;;;22.40;99.90;;;;;;5092376;28;20842;-68
2021/04/30 09:12:38;;;;;;;2.03;1.73;;;22.30;99.90;;;;;;5092887;28;20573;-70
2021/04/30 09:15:05;;;;;;;2.63;1.80;;;22.60;99.90;;;;;;5091294;28;21100;-68
2021/04/30 09:17:31;;;;;;;2.50;2.10;;;22.70;99.90;;;;;;5093030;28;20468;-69
2021/04/30 09:20:04;;;;;;;2.50;2.30;;;22.90;99.90;;;;;;5091570;28;20422;-68
2021/04/30 09:22:38;;;;;;;4.20;2.07;;;23.00;99.90;;;;;;5092844;28;20181;-69
2021/04/30 09:25:12;;;;;;;2.20;1.80;;;23.10;99.90;;;;;;5089052;28;20513;-67
2021/04/30 09:27:39;;;;;;;2.30;2.10;;;22.80;99.90;;;;;;5086783;28;20978;-68
2021/04/30 09:30:30;;;;;;;3.97;2.37;;;22.70;99.90;;;;;;5086824;28;21065;-70
2021/04/30 09:33:15;;;;;;;2.30;2.10;;;22.60;99.90;;;;;;5086376;28;20487;-68
2021/04/30 09:35:49;;;;;;;3.27;1.87;;;22.60;99.90;;;;;;5089141;28;20458;-67
2021/04/30 09:38:23;;;;;;;2.10;1.60;;;23.00;99.90;;;;;;5085797;28;20968;-69
2021/04/30 09:41:10;;;;;;;3.03;2.17;;;23.30;99.90;;;;;;5089645;28;20423;-69
2021/04/30 09:43:46;;;;;;;1.97;1.77;;;23.60;99.90;;;;;;5092417;28;20452;-69
2021/04/30 09:46:35;;;;;;;1.90;1.63;;;24.00;99.90;;;;;;5087503;28;20438;-68
2021/04/30 09:49:05;;;;;;;2.00;1.67;;;24.00;99.90;;;;;;5083945;28;20976;-71
2021/04/30 09:51:39;;;;;;;3.00;2.10;;;23.80;99.90;;;;;;5084896;28;20422;-67
2021/04/30 09:54:29;;;;;;;4.13;1.67;;;24.00;99.90;;;;;;5078557;28;20459;-70
2021/04/30 09:57:10;;;;;;;3.80;1.87;;;24.30;99.90;;;;;;5085930;28;20432;-68
2021/04/30 09:59:37;;;;;;;2.07;1.97;;;24.00;99.90;;;;;;5082557;28;20444;-67
2021/04/30 10:02:19;;;;;;;3.97;1.53;;;23.80;99.90;;;;;;5083235;28;20438;-69
2021/04/30 10:04:47;;;;;;;8.10;3.13;;;23.60;99.90;;;;;;5086333;28;20419;-68
2021/04/30 10:07:15;;;;;;;2.40;2.20;;;23.70;99.90;;;;;;5085786;28;20466;-68
2021/04/30 10:09:42;;;;;;;2.03;1.73;;;23.60;99.90;;;;;;5090466;28;20417;-69
2021/04/30 10:12:30;;;;;;;2.47;1.80;;;23.70;99.90;;;;;;5091125;28;20505;-66
2021/04/30 10:14:56;;;;;;;4.47;1.83;;;24.00;99.90;;;;;;5091662;28;20511;-69
2021/04/30 10:17:21;;;;;;;2.13;1.63;;;24.10;99.90;;;;;;5091005;28;20527;-66
2021/04/30 10:19:49;;;;;;;3.40;1.80;;;24.40;99.90;;;;;;5093016;28;20177;-68
2021/04/30 10:22:21;;;;;;;4.97;2.20;;;24.60;99.90;;;;;;5093240;28;20795;-69
2021/04/30 10:24:58;;;;;;;2.73;1.87;;;24.70;99.90;;;;;;5093236;28;20453;-67
2021/04/30 10:27:37;;;;;;;2.13;1.70;;;24.60;99.90;;;;;;5091069;28;20428;-69
2021/04/30 10:30:19;;;;;;;1.97;1.77;;;24.40;99.90;;;;;;5085625;28;20424;-70
2021/04/30 10:32:56;;;;;;;2.63;1.90;;;24.50;99.90;;;;;;5091199;28;20487;-69
2021/04/30 10:36:04;;;;;;;4.73;2.13;;;24.70;99.90;;;;;;5090274;28;20424;-69
2021/04/30 10:38:33;;;;;;;2.23;1.87;;;24.40;99.90;;;;;;5081045;28;20456;-69
2021/04/30 10:41:04;;;;;;;2.00;1.80;;;24.40;99.90;;;;;;5088764;28;20440;-69
2021/04/30 10:43:32;;;;;;;2.90;2.60;;;24.40;99.90;;;;;;5084989;28;20443;-69
2021/04/30 10:46:15;;;;;;;2.20;2.00;;;24.30;99.90;;;;;;5088272;28;20509;-68
2021/04/30 10:49:03;;;;;;;2.00;1.80;;;25.00;99.90;;;;;;5086881;28;20509;-69
2021/04/30 10:51:29;;;;;;;4.90;1.93;;;25.50;99.90;;;;;;5089572;28;20451;-67
2021/04/30 10:54:23;;;;;;;2.57;2.07;;;25.30;99.90;;;;;;5085738;28;20482;-69
2021/04/30 10:57:05;;;;;;;1.90;1.70;;;24.60;99.90;;;;;;5081313;28;20781;-68
2021/04/30 10:59:40;;;;;;;2.40;2.00;;;24.60;99.90;;;;;;5075812;28;20494;-66
2021/04/30 11:02:17;;;;;;;2.80;2.07;;;23.90;99.90;;;;;;5080578;28;20439;-69
2021/04/30 11:05:02;;;;;;;2.60;2.40;;;24.00;99.90;;;;;;5094241;28;20436;-67
2021/04/30 11:07:39;;;;;;;2.10;1.87;;;24.10;99.90;;;;;;5084487;28;20960;-67
2021/04/30 11:10:35;;;;;;;2.70;2.50;;;24.50;99.90;;;;;;5088147;28;20459;-69
2021/04/30 11:13:15;;;;;;;3.33;2.50;;;24.30;99.90;;;;;;5086516;28;20570;-66
2021/04/30 11:15:44;;;;;;;4.13;1.93;;;24.30;99.90;;;;;;5096112;28;20427;-68
2021/04/30 11:18:10;;;;;;;4.63;1.93;;;24.10;99.90;;;;;;5092700;28;20520;-67
2021/04/30 11:20:37;;;;;;;3.70;2.20;;;23.90;99.90;;;;;;5092334;28;20423;-67
2021/04/30 11:23:23;;;;;;;3.70;2.20;;;23.80;99.90;;;;;;5091477;28;20524;-68
2021/04/30 11:25:57;;;;;;;4.23;2.60;;;23.80;99.90;;;;;;5091990;28;20512;-67
2021/04/30 11:28:33;;;;;;;2.13;1.93;;;23.70;99.90;;;;;;5089971;28;20456;-67
2021/04/30 11:31:00;;;;;;;5.50;2.20;;;23.80;99.90;;;;;;5092159;28;20443;-69
2021/04/30 11:33:26;;;;;;;5.90;2.23;;;24.00;99.90;;;;;;5092510;28;20479;-67
2021/04/30 11:35:53;;;;;;;2.10;1.90;;;24.00;99.90;;;;;;5091470;28;20486;-67
2021/04/30 11:38:19;;;;;;;2.20;1.87;;;24.30;99.90;;;;;;5089283;28;20443;-69
2021/04/30 11:40:56;;;;;;;2.73;2.17;;;24.10;99.90;;;;;;5091558;28;20424;-69
2021/04/30 11:43:23;;;;;;;2.10;1.90;;;24.10;99.90;;;;;;5092331;28;20210;-66
2021/04/30 11:45:55;;;;;;;3.57;2.23;;;24.00;99.90;;;;;;5091171;28;20817;-67
2021/04/30 11:48:25;;;;;;;5.27;2.03;;;24.30;99.90;;;;;;5092398;28;20475;-66
2021/04/30 11:51:07;;;;;;;2.07;1.87;;;24.50;99.90;;;;;;5092789;28;20573;-67
2021/04/30 11:53:36;;;;;;;2.03;1.57;;;24.40;99.90;;;;;;5095139;28;20895;-67
2021/04/30 11:56:04;;;;;;;5.03;2.63;;;25.10;99.90;;;;;;5093184;28;20420;-67
2021/04/30 11:58:45;;;;;;;3.67;1.73;;;24.50;99.90;;;;;;5092511;28;20909;-69
2021/04/30 12:01:13;;;;;;;2.17;1.80;;;24.90;99.90;;;;;;5091172;28;20934;-67
2021/04/30 12:03:43;;;;;;;9.93;2.53;;;24.40;99.90;;;;;;5086276;28;20445;-67
2021/04/30 12:06:15;;;;;;;1.77;1.67;;;24.30;99.90;;;;;;5087626;28;20425;-68
2021/04/30 12:08:45;;;;;;;2.87;2.20;;;24.60;99.90;;;;;;5074354;28;20449;-69
2021/04/30 12:11:33;;;;;;;1.80;1.70;;;24.70;99.90;;;;;;5087165;28;20432;-69
2021/04/30 12:14:04;;;;;;;2.83;1.53;;;24.60;99.90;;;;;;5082652;28;20516;-70
2021/04/30 12:16:30;;;;;;;1.80;1.50;;;25.00;99.90;;;;;;5091422;28;20454;-68
2021/04/30 12:18:56;;;;;;;2.50;2.07;;;25.10;99.90;;;;;;5092507;28;20439;-70
2021/04/30 12:21:27;;;;;;;2.80;1.27;;;25.40;99.90;;;;;;5091632;28;20421;-70
2021/04/30 12:23:53;;;;;;;2.93;1.80;;;25.30;99.90;;;;;;5092389;28;20548;-70
2021/04/30 12:26:30;;;;;;;3.27;1.60;;;25.30;99.90;;;;;;5087770;28;20436;-70
2021/04/30 12:28:58;;;;;;;2.60;2.37;;;25.40;99.90;;;;;;5091420;28;20440;-72
2021/04/30 12:31:24;;;;;;;2.40;1.60;;;25.50;99.90;;;;;;5092978;28;20912;-69
2021/04/30 12:33:51;;;;;;;2.37;1.80;;;25.60;99.90;;;;;;5092270;28;20827;-69
2021/04/30 12:36:23;;;;;;;3.40;1.93;;;25.80;99.90;;;;;;5091029;28;20437;-69
2021/04/30 12:39:10;;;;;;;1.33;1.23;;;25.90;99.90;;;;;;5086653;28;20455;-69
2021/04/30 12:41:40;;;;;;;2.30;1.60;;;25.60;99.90;;;;;;5095174;28;20416;-70